Time;durP1;ratioP1;P1;durP2;ratioP2;P2;SDS_P1;SDS_P2;PMS_P1;PMS_P2;Temp;Humidity;BMP_temperature;BMP_pressure;BME280_temperature;BME280_humidity;BME280_pressure;Samples;Min_cycle;Max_cycle;Signal;HPM_P1;HPM_P2
2021/09/02 00:01:11;;;;;;;8.23;4.90;;;;;;;13.88;74.32;100797.97;1342342;92;21517;-85
2021/09/02 00:03:38;;;;;;;7.93;4.50;;;;;;;13.89;74.33;100806.27;1324390;93;21487;-85
2021/09/02 00:06:05;;;;;;;10.57;4.93;;;;;;;13.88;74.36;100808.61;1342389;92;22174;-85
2021/09/02 00:08:32;;;;;;;13.00;5.50;;;;;;;13.84;74.32;100801.95;1342565;91;21332;-85
2021/09/02 00:11:00;;;;;;;9.83;4.67;;;;;;;13.84;74.33;100803.75;1342369;91;21332;-85
2021/09/02 00:13:27;;;;;;;9.07;5.43;;;;;;;13.80;74.42;100801.09;1342255;92;21475;-86
2021/09/02 00:15:54;;;;;;;6.70;4.60;;;;;;;13.74;74.68;100803.89;1324826;93;21509;-85
2021/09/02 00:18:21;;;;;;;9.00;5.17;;;;;;;13.66;74.96;100807.33;1342200;92;21310;-85
2021/09/02 00:20:48;;;;;;;9.00;4.93;;;;;;;13.63;74.86;100804.98;1325383;93;21687;-85
2021/09/02 00:23:16;;;;;;;7.80;5.43;;;;;;;13.58;75.05;100805.98;1342655;91;21494;-85
2021/09/02 00:25:43;;;;;;;7.47;5.17;;;;;;;13.57;74.87;100810.12;1342174;92;22426;-85
2021/09/02 00:28:10;;;;;;;7.73;5.17;;;;;;;13.55;74.89;100810.26;1343373;91;21420;-85
2021/09/02 00:30:38;;;;;;;14.23;4.33;;;;;;;13.51;74.93;100812.41;1342168;92;22295;-85
2021/09/02 00:33:05;;;;;;;7.83;5.40;;;;;;;13.48;75.04;100819.38;1342276;91;21428;-85
2021/09/02 00:35:33;;;;;;;8.80;5.50;;;;;;;13.44;75.03;100811.38;1342863;92;21384;-84
2021/09/02 00:38:00;;;;;;;7.03;4.60;;;;;;;13.41;75.18;100814.36;1342637;92;22300;-85
2021/09/02 00:40:27;;;;;;;11.13;5.23;;;;;;;13.39;75.33;100822.97;1354516;90;21370;-85
2021/09/02 00:42:54;;;;;;;5.53;4.30;;;;;;;13.36;75.38;100824.62;1342462;92;21385;-85
2021/09/02 00:45:21;;;;;;;8.17;4.83;;;;;;;13.33;75.27;100825.44;1358544;92;21304;-84
2021/09/02 00:47:48;;;;;;;7.83;4.47;;;;;;;13.31;75.37;100827.73;1360873;91;21527;-84
2021/09/02 00:50:16;;;;;;;10.37;5.70;;;;;;;13.28;75.41;100832.53;1342867;91;21215;-84
2021/09/02 00:52:44;;;;;;;8.00;4.90;;;;;;;13.23;75.53;100834.78;1342825;91;21625;-85
2021/09/02 00:55:13;;;;;;;8.43;4.70;;;;;;;13.16;75.70;100836.41;1342582;91;22338;-85
2021/09/02 00:57:40;;;;;;;10.43;4.97;;;;;;;13.12;75.79;100835.02;1342916;91;22418;-85
2021/09/02 01:00:15;;;;;;;8.40;5.50;;;;;;;13.05;76.14;100832.16;1342301;92;21364;-86
2021/09/02 01:02:45;;;;;;;6.70;4.80;;;;;;;13.00;76.43;100831.28;1341119;92;21526;-86
2021/09/02 01:05:16;;;;;;;9.50;4.97;;;;;;;12.94;76.75;100827.91;1342539;91;21289;-86
2021/09/02 01:07:44;;;;;;;6.33;4.30;;;;;;;12.90;76.90;100825.23;1341824;92;21334;-87
2021/09/02 01:10:12;;;;;;;10.63;4.73;;;;;;;12.87;77.16;100821.55;1342434;91;21408;-87
2021/09/02 01:12:43;;;;;;;8.60;5.50;;;;;;;12.85;77.18;100816.87;1341897;92;21245;-85
2021/09/02 01:15:21;;;;;;;8.40;5.03;;;;;;;12.86;77.02;100824.71;1342317;91;21452;-85
2021/09/02 01:17:53;;;;;;;6.13;4.60;;;;;;;12.89;77.09;100828.89;1342042;91;22205;-85
2021/09/02 01:20:24;;;;;;;8.10;5.00;;;;;;;12.86;77.07;100823.38;1343256;92;22937;-85
2021/09/02 01:22:57;;;;;;;8.33;4.83;;;;;;;12.83;77.70;100825.48;1341951;92;21580;-85
2021/09/02 01:25:34;;;;;;;10.27;4.77;;;;;;;12.81;77.15;100824.33;1342097;91;21260;-86
2021/09/02 01:28:05;;;;;;;5.67;4.43;;;;;;;12.77;77.46;100824.77;1342031;92;21477;-85
2021/09/02 01:30:34;;;;;;;8.77;4.93;;;;;;;12.73;77.60;100830.06;1342502;91;21459;-84
2021/09/02 01:33:03;;;;;;;7.17;4.83;;;;;;;12.72;77.84;100834.54;1342132;92;21444;-85
2021/09/02 01:35:32;;;;;;;8.77;5.47;;;;;;;12.70;77.88;100827.70;1342718;91;21319;-85
2021/09/02 01:38:03;;;;;;;8.17;5.03;;;;;;;12.69;78.07;100827.34;1342768;92;21297;-84
2021/09/02 01:40:35;;;;;;;9.50;5.30;;;;;;;12.68;77.99;100821.70;1341990;92;21348;-84
2021/09/02 01:43:04;;;;;;;7.63;5.80;;;;;;;12.65;78.02;100818.36;1342330;91;22353;-84
2021/09/02 01:45:32;;;;;;;7.83;5.33;;;;;;;12.64;78.08;100825.16;1342404;92;21289;-84
2021/09/02 01:48:01;;;;;;;13.77;6.60;;;;;;;12.61;77.76;100824.97;1342676;91;22184;-85
2021/09/02 01:50:32;;;;;;;9.97;4.77;;;;;;;12.60;77.72;100821.98;1342597;92;21311;-85
2021/09/02 01:53:01;;;;;;;;;;;;;;;12.59;77.85;100816.31;1344521;91;22132;-85
2021/09/02 01:55:28;;;;;;;8.80;4.50;;;;;;;12.57;78.23;100809.48;1342708;91;20802;-85
2021/09/02 01:57:55;;;;;;;7.57;4.83;;;;;;;12.56;77.80;100807.82;1342569;91;21297;-85
2021/09/02 02:00:23;;;;;;;14.47;5.23;;;;;;;12.54;77.77;100807.95;1342557;91;21333;-85
2021/09/02 02:02:51;;;;;;;9.50;4.80;;;;;;;12.51;78.25;100807.44;1342357;92;21304;-86
2021/09/02 02:05:19;;;;;;;7.23;4.83;;;;;;;12.46;78.50;100801.73;1342484;92;21546;-86
2021/09/02 02:07:47;;;;;;;9.37;6.13;;;;;;;12.43;78.66;100798.91;1342536;92;21386;-85
2021/09/02 02:10:18;;;;;;;9.77;5.10;;;;;;;12.41;78.65;100790.26;1337403;93;21437;-85
2021/09/02 02:12:46;;;;;;;13.70;6.77;;;;;;;12.33;78.70;100784.36;1342272;91;21755;-85
2021/09/02 02:15:13;;;;;;;8.20;4.97;;;;;;;12.34;79.03;100775.91;1324595;93;21409;-85
2021/09/02 02:17:41;;;;;;;7.93;4.63;;;;;;;12.36;79.09;100775.27;1342138;92;21319;-84
2021/09/02 02:20:10;;;;;;;9.53;4.93;;;;;;;12.43;79.75;100781.66;1344414;91;21318;-86
2021/09/02 02:22:38;;;;;;;9.77;4.20;;;;;;;12.56;79.54;100791.89;1345474;91;21230;-84
2021/09/02 02:25:08;;;;;;;6.20;3.83;;;;;;;12.66;79.51;100793.99;1345957;91;21319;-85
2021/09/02 02:27:35;;;;;;;10.67;5.80;;;;;;;12.72;79.24;100808.48;1345846;91;21562;-85
2021/09/02 02:30:06;;;;;;;7.43;4.80;;;;;;;12.75;79.39;100814.31;1346030;91;22039;-86
2021/09/02 02:32:33;;;;;;;8.08;4.42;;;;;;;12.82;78.97;100817.19;1346264;91;21333;-85
2021/09/02 02:35:01;;;;;;;7.77;4.67;;;;;;;12.84;78.60;100815.22;1346328;91;21296;-85
2021/09/02 02:37:28;;;;;;;6.30;4.17;;;;;;;12.84;78.52;100819.20;1330107;93;21349;-85
2021/09/02 02:39:56;;;;;;;7.30;4.80;;;;;;;12.87;78.36;100808.27;1329061;92;21312;-85
2021/09/02 02:42:23;;;;;;;10.57;5.00;;;;;;;12.91;78.43;100810.13;1346410;91;22434;-86
2021/09/02 02:44:50;;;;;;;17.47;5.13;;;;;;;12.87;78.42;100809.10;1346097;91;21304;-85
2021/09/02 02:47:18;;;;;;;13.37;5.10;;;;;;;12.85;78.30;100808.91;1345744;92;21393;-86
2021/09/02 02:49:45;;;;;;;14.80;5.17;;;;;;;12.82;78.04;100815.86;1345948;92;22405;-86
2021/09/02 02:52:12;;;;;;;7.87;5.27;;;;;;;12.81;78.19;100815.53;1345924;91;21319;-86
2021/09/02 02:54:39;;;;;;;8.20;4.87;;;;;;;12.78;78.09;100815.34;1345724;91;21326;-86
2021/09/02 02:57:07;;;;;;;7.67;5.30;;;;;;;12.77;78.05;100820.29;1345509;92;21274;-87
2021/09/02 02:59:34;;;;;;;7.73;4.87;;;;;;;12.71;78.45;100828.03;1346337;92;21466;-87
2021/09/02 03:02:01;;;;;;;10.10;4.50;;;;;;;12.64;78.35;100833.96;1329723;93;21466;-87
2021/09/02 03:04:28;;;;;;;11.47;6.23;;;;;;;12.60;78.57;100827.30;1345428;92;21267;-86
2021/09/02 03:06:56;;;;;;;7.03;4.57;;;;;;;12.52;79.29;100831.19;1348956;91;22264;-88
2021/09/02 03:09:23;;;;;;;7.47;4.83;;;;;;;12.45;79.79;100826.62;1345581;92;21208;-86
2021/09/02 03:11:50;;;;;;;9.03;5.00;;;;;;;12.38;79.65;100819.76;1346194;91;21401;-86
2021/09/02 03:14:17;;;;;;;11.07;5.20;;;;;;;12.34;79.71;100816.58;1346078;91;21605;-86
2021/09/02 03:16:49;;;;;;;7.87;5.13;;;;;;;12.34;79.65;100818.38;1346176;91;21422;-86
2021/09/02 03:19:16;;;;;;;7.40;4.87;;;;;;;12.32;79.34;100821.69;1345601;91;21648;-86
2021/09/02 03:21:43;;;;;;;6.07;3.80;;;;;;;12.31;79.30;100827.95;1347216;92;22801;-86
2021/09/02 03:24:11;;;;;;;8.10;4.27;;;;;;;12.27;80.01;100837.22;1346129;91;21569;-86
2021/09/02 03:26:38;;;;;;;14.30;5.33;;;;;;;12.23;80.31;100828.72;1345933;91;21334;-86
2021/09/02 03:29:05;;;;;;;9.20;4.83;;;;;;;12.22;80.79;100835.49;1315207;95;21349;-86
2021/09/02 03:31:32;;;;;;;6.97;4.70;;;;;;;12.25;81.04;100831.21;1346549;91;21296;-86
2021/09/02 03:33:59;;;;;;;6.33;4.47;;;;;;;12.27;81.20;100829.25;1345800;92;21466;-86
2021/09/02 03:36:27;;;;;;;6.37;4.60;;;;;;;12.34;80.81;100832.97;1345783;91;21348;-86
2021/09/02 03:38:54;;;;;;;9.13;4.73;;;;;;;12.36;80.81;100837.64;1345169;91;21370;-85
2021/09/02 03:41:21;;;;;;;10.43;5.47;;;;;;;12.41;80.46;100838.03;1345722;91;21333;-86
2021/09/02 03:43:48;;;;;;;7.17;4.80;;;;;;;12.46;80.42;100836.24;1346123;91;22315;-85
2021/09/02 03:46:15;;;;;;;9.80;4.90;;;;;;;12.53;80.32;100843.47;1345973;92;22703;-86
2021/09/02 03:48:42;;;;;;;6.77;4.17;;;;;;;12.59;80.05;100840.70;1346394;91;21289;-85
2021/09/02 03:51:10;;;;;;;11.90;5.87;;;;;;;12.63;79.74;100845.58;1346231;91;21245;-85
2021/09/02 03:53:37;;;;;;;13.20;5.17;;;;;;;12.69;79.69;100843.28;1347345;91;21348;-86
2021/09/02 03:56:04;;;;;;;7.67;4.60;;;;;;;12.73;79.96;100844.66;1346760;91;22264;-86
2021/09/02 03:58:31;;;;;;;7.63;5.00;;;;;;;12.80;79.75;100852.36;1346145;92;21304;-86
2021/09/02 04:00:58;;;;;;;6.07;4.30;;;;;;;12.88;79.54;100849.78;1346682;91;21447;-86
2021/09/02 04:03:25;;;;;;;7.80;4.07;;;;;;;12.94;79.69;100852.32;1346819;92;21386;-86
2021/09/02 04:05:52;;;;;;;8.53;4.83;;;;;;;13.00;79.30;100848.55;1346561;92;21503;-86
2021/09/02 04:08:20;;;;;;;8.13;4.40;;;;;;;13.07;79.24;100844.81;1346636;91;21348;-86
2021/09/02 04:10:47;;;;;;;7.80;4.77;;;;;;;13.14;79.20;100846.34;1346448;92;21334;-86
2021/09/02 04:13:14;;;;;;;8.83;4.63;;;;;;;13.23;79.00;100850.73;1346797;91;21466;-85
2021/09/02 04:15:42;;;;;;;10.13;5.37;;;;;;;13.34;79.00;100845.70;1346273;91;21319;-86
2021/09/02 04:18:09;;;;;;;7.07;4.50;;;;;;;13.42;78.83;100843.10;1346475;92;21364;-86
2021/09/02 04:20:36;;;;;;;8.13;4.40;;;;;;;13.48;78.83;100831.84;1346930;91;21484;-86
2021/09/02 04:23:04;;;;;;;7.67;4.17;;;;;;;13.51;78.75;100831.02;1347163;91;21400;-88
2021/09/02 04:25:31;;;;;;;6.07;4.50;;;;;;;13.54;78.95;100836.02;1346840;91;21492;-88
2021/09/02 04:27:58;;;;;;;6.90;4.30;;;;;;;13.58;78.67;100831.25;1346249;92;22206;-87
2021/09/02 04:30:26;;;;;;;11.57;4.60;;;;;;;13.68;78.71;100836.45;1346601;91;21404;-87
2021/09/02 04:32:53;;;;;;;5.63;4.53;;;;;;;13.74;78.45;100844.62;1346643;91;21473;-87
2021/09/02 04:35:20;;;;;;;8.27;4.60;;;;;;;13.77;78.25;100843.47;1346471;91;21393;-86
2021/09/02 04:37:47;;;;;;;7.63;5.00;;;;;;;13.80;78.38;100839.66;1346387;91;21341;-86
2021/09/02 04:40:16;;;;;;;8.83;4.67;;;;;;;13.82;78.50;100845.17;1346439;91;21392;-87
2021/09/02 04:42:44;;;;;;;7.97;3.67;;;;;;;13.86;78.27;100845.17;1346431;91;21598;-87
2021/09/02 04:45:12;;;;;;;6.67;4.63;;;;;;;13.93;77.99;100853.38;1346088;91;21326;-87
2021/09/02 04:47:39;;;;;;;6.47;4.53;;;;;;;14.00;77.95;100853.89;1330457;93;21318;-88
2021/09/02 04:50:10;;;;;;;10.27;5.33;;;;;;;14.08;77.93;100850.44;1346506;91;21341;-87
2021/09/02 04:52:37;;;;;;;7.37;4.35;;;;;;;14.09;77.91;100853.93;1346240;91;21364;-87
2021/09/02 04:55:06;;;;;;;7.53;4.50;;;;;;;14.11;77.84;100855.95;1346399;91;22302;-86
2021/09/02 04:57:33;;;;;;;15.53;5.70;;;;;;;14.14;77.70;100867.09;1346657;92;21283;-88
2021/09/02 05:00:00;;;;;;;6.87;4.47;;;;;;;14.09;77.59;100868.57;1346843;91;21311;-86
2021/09/02 05:02:27;;;;;;;7.47;5.63;;;;;;;14.10;77.55;100867.59;1347195;91;22234;-86
2021/09/02 05:04:54;;;;;;;10.33;4.53;;;;;;;14.15;77.47;100875.41;1346360;92;21297;-87
2021/09/02 05:07:21;;;;;;;9.03;4.70;;;;;;;14.16;77.36;100878.43;1346432;91;21348;-87
2021/09/02 05:09:48;;;;;;;14.00;5.37;;;;;;;14.18;77.31;100887.09;1346240;91;21319;-87
2021/09/02 05:12:18;;;;;;;8.27;5.13;;;;;;;14.18;77.50;100890.23;1346726;91;21311;-87
2021/09/02 05:14:46;;;;;;;7.60;5.00;;;;;;;14.22;77.29;100888.94;1346402;91;22161;-86
2021/09/02 05:17:13;;;;;;;7.67;4.80;;;;;;;14.27;77.14;100887.11;1329736;93;22184;-87
2021/09/02 05:19:41;;;;;;;8.87;4.67;;;;;;;14.32;76.99;100888.30;1346193;91;21521;-88
2021/09/02 05:22:08;;;;;;;11.70;5.10;;;;;;;14.39;76.84;100892.00;1347119;91;22788;-87
2021/09/02 05:24:35;;;;;;;12.33;5.07;;;;;;;14.45;76.65;100888.69;1346590;91;21451;-88
2021/09/02 05:27:03;;;;;;;9.27;5.50;;;;;;;14.54;76.66;100886.08;1346620;91;22199;-87
2021/09/02 05:29:30;;;;;;;7.10;5.30;;;;;;;14.55;76.79;100893.89;1330736;92;21348;-91
2021/09/02 05:31:57;;;;;;;11.23;5.50;;;;;;;14.61;76.82;100889.24;1347305;91;21348;-89
2021/09/02 05:34:24;;;;;;;11.70;5.57;;;;;;;14.67;76.34;100891.76;1347023;91;21304;-90
2021/09/02 05:36:52;;;;;;;10.27;4.90;;;;;;;14.73;75.91;100892.47;1347599;91;21481;-91
2021/09/02 05:39:19;;;;;;;7.10;4.67;;;;;;;14.80;76.28;100902.79;1329546;93;21297;-88
2021/09/02 05:41:48;;;;;;;9.83;4.67;;;;;;;14.82;76.30;100894.14;1345994;91;21355;-87
2021/09/02 05:44:15;;;;;;;10.20;4.53;;;;;;;14.89;76.27;100897.80;1346051;92;22397;-88
2021/09/02 05:46:43;;;;;;;7.87;5.07;;;;;;;14.99;76.18;100896.81;1346067;91;22721;-88
2021/09/02 05:49:10;;;;;;;10.53;5.10;;;;;;;15.04;76.21;100909.16;1347122;92;22205;-87
2021/09/02 05:51:37;;;;;;;9.27;5.20;;;;;;;15.07;76.21;100906.98;1346373;92;21283;-87
2021/09/02 05:54:04;;;;;;;12.97;5.53;;;;;;;15.19;76.25;100914.19;1346412;91;21573;-87
2021/09/02 05:56:32;;;;;;;9.80;5.87;;;;;;;15.28;75.85;100916.35;1346854;91;21356;-87
2021/09/02 05:58:59;;;;;;;9.87;6.07;;;;;;;15.41;75.77;100918.50;1346188;91;21304;-86
2021/09/02 06:01:26;;;;;;;10.40;5.50;;;;;;;15.52;75.65;100916.33;1346314;91;21393;-86
2021/09/02 06:03:53;;;;;;;8.40;5.33;;;;;;;15.63;75.17;100921.83;1346339;92;22198;-87
2021/09/02 06:06:20;;;;;;;14.10;5.47;;;;;;;15.68;75.15;100922.20;1346857;91;21342;-88
2021/09/02 06:08:47;;;;;;;9.53;5.17;;;;;;;15.72;74.89;100922.17;1346368;91;21267;-86
2021/09/02 06:11:14;;;;;;;6.53;5.27;;;;;;;15.83;74.64;100921.51;1346200;92;22761;-86
2021/09/02 06:13:41;;;;;;;9.73;5.70;;;;;;;15.87;74.34;100922.82;1347075;92;21629;-91
2021/09/02 06:16:09;;;;;;;7.70;5.33;;;;;;;15.85;74.22;100922.98;1348994;91;21510;-89
2021/09/02 06:18:36;;;;;;;9.23;5.43;;;;;;;15.84;74.09;100924.50;1348221;91;22243;-90
2021/09/02 06:21:03;;;;;;;12.77;4.93;;;;;;;15.87;74.32;100924.98;1347287;92;21370;-90
2021/09/02 06:23:31;;;;;;;8.60;4.80;;;;;;;15.88;74.38;100927.14;1331249;92;21707;-91
2021/09/02 06:25:58;;;;;;;10.03;5.87;;;;;;;15.90;74.39;100927.81;1346520;90;22457;-92
2021/09/02 06:28:25;;;;;;;8.40;5.63;;;;;;;15.90;74.44;100929.16;1347833;91;21282;-92
2021/09/02 06:30:52;;;;;;;8.77;5.10;;;;;;;15.94;74.56;100933.13;1348102;92;21267;-91
2021/09/02 06:33:20;;;;;;;14.27;6.30;;;;;;;15.94;74.54;100933.13;1347837;92;22118;-88
2021/09/02 06:35:47;;;;;;;7.90;5.20;;;;;;;15.90;74.36;100939.83;1346792;91;21267;-91
2021/09/02 06:38:14;;;;;;;8.03;5.47;;;;;;;15.87;74.19;100942.33;1330987;92;21311;-90
2021/09/02 06:40:41;;;;;;;12.30;5.17;;;;;;;15.84;74.39;100948.52;1345948;92;22220;-90
2021/09/02 06:43:14;;;;;;;8.10;4.80;;;;;;;15.78;74.52;100950.85;1347804;90;21318;-92
2021/09/02 06:45:41;;;;;;;7.27;4.53;;;;;;;15.79;74.64;100951.68;1348800;91;21261;-92
2021/09/02 06:48:08;;;;;;;9.20;4.53;;;;;;;15.84;74.74;100953.86;1347754;91;22327;-91
2021/09/02 06:50:36;;;;;;;7.77;4.73;;;;;;;15.91;74.77;100961.03;1347287;90;21282;-90
2021/09/02 06:53:03;;;;;;;8.63;5.20;;;;;;;15.94;74.77;100968.70;1346993;92;22230;-90
2021/09/02 06:55:30;;;;;;;9.00;5.23;;;;;;;16.01;74.86;100967.50;1345940;92;21400;-92
2021/09/02 06:57:57;;;;;;;7.37;4.53;;;;;;;16.07;74.64;100976.16;1347495;92;21274;-89
2021/09/02 07:00:24;;;;;;;8.40;4.70;;;;;;;16.11;73.32;100977.52;1345607;91;21363;-90
2021/09/02 07:02:53;;;;;;;11.13;4.90;;;;;;;16.19;73.58;100976.13;1345255;90;21385;-90
2021/09/02 07:05:20;;;;;;;10.30;4.30;;;;;;;16.29;73.42;100981.80;1346031;91;21341;-90
2021/09/02 07:07:47;;;;;;;8.40;5.17;;;;;;;16.30;71.53;100975.45;1346018;92;22670;-89
2021/09/02 07:10:14;;;;;;;7.90;4.03;;;;;;;16.39;71.84;100969.06;1345071;91;21297;-90
2021/09/02 07:12:41;;;;;;;6.60;4.40;;;;;;;16.42;71.60;100964.72;1348154;90;21304;-92
2021/09/02 07:15:09;;;;;;;5.97;4.37;;;;;;;16.47;70.38;100967.20;1334447;92;21253;-90
2021/09/02 07:17:36;;;;;;;5.90;3.93;;;;;;;16.58;70.94;100971.84;1327092;93;21358;-90
2021/09/02 07:20:04;;;;;;;6.87;4.30;;;;;;;16.58;69.84;100965.99;1327325;93;21326;-91
2021/09/02 07:22:32;;;;;;;6.63;4.73;;;;;;;16.61;69.92;100968.31;1333112;92;21494;-91
2021/09/02 07:24:59;;;;;;;8.53;4.13;;;;;;;16.61;69.92;100966.16;1355062;92;21326;-91
2021/09/02 07:27:26;;;;;;;8.13;4.20;;;;;;;16.56;69.85;100972.52;1349697;91;21887;-91
2021/09/02 07:29:54;;;;;;;4.17;3.77;;;;;;;16.51;69.42;100978.36;1353488;91;21377;-91
2021/09/02 07:32:21;;;;;;;5.73;3.57;;;;;;;16.49;69.41;100977.73;1364863;91;21209;-92
2021/09/02 07:34:49;;;;;;;9.00;3.93;;;;;;;16.53;69.67;100973.69;1373928;89;22242;-92
2021/09/02 07:37:17;;;;;;;4.57;3.63;;;;;;;16.62;69.93;100975.83;1374888;90;22116;-92
2021/09/02 07:39:44;;;;;;;6.27;4.77;;;;;;;16.67;70.48;100976.97;1373954;90;21252;-91
2021/09/02 07:42:11;;;;;;;8.73;4.30;;;;;;;16.79;70.14;100977.95;1373878;90;21392;-91
2021/09/02 07:44:38;;;;;;;5.60;3.10;;;;;;;16.91;69.06;100980.55;1374512;89;21532;-91
2021/09/02 07:47:06;;;;;;;6.93;3.20;;;;;;;16.99;69.18;100979.69;1374390;89;21310;-92
2021/09/02 07:49:33;;;;;;;9.50;4.27;;;;;;;17.08;67.84;100986.13;1374305;90;21296;-93
2021/09/02 07:52:00;;;;;;;5.63;3.57;;;;;;;17.24;68.86;100983.05;1374032;90;21281;-91
2021/09/02 07:54:27;;;;;;;6.30;3.85;;;;;;;17.38;68.58;100988.97;1374380;90;22198;-92
2021/09/02 07:56:54;;;;;;;8.63;3.62;;;;;;;17.48;67.57;100980.17;1371067;89;21295;-92
2021/09/02 07:59:22;;;;;;;7.60;4.00;;;;;;;17.64;67.56;100983.23;1360020;91;21356;-92
2021/09/02 08:01:49;;;;;;;3.77;2.67;;;;;;;17.89;67.79;100990.55;1373807;90;21340;-91
2021/09/02 08:04:16;;;;;;;9.20;3.55;;;;;;;18.09;67.78;100984.17;1357484;90;21479;-93
2021/09/02 08:06:43;;;;;;;8.25;3.87;;;;;;;18.27;66.47;100987.86;1356677;91;21334;-93
2021/09/02 08:09:10;;;;;;;5.55;3.47;;;;;;;18.52;66.20;100975.49;1357240;91;21473;-93
2021/09/02 08:11:37;;;;;;;8.35;3.30;;;;;;;18.69;65.52;100980.97;1358648;91;21393;-93
2021/09/02 08:16:35;;;;;;;5.30;3.15;;;;;;;19.15;63.00;100980.70;1348652;92;21568;-92
2021/09/02 08:21:39;;;;;;;7.55;3.60;;;;;;;19.52;60.86;100988.19;1396508;86;23506;31
2021/09/02 08:26:36;;;;;;;6.20;3.08;;;;;;;19.90;61.47;100976.65;1376636;88;21823;-80
2021/09/02 08:29:05;;;;;;;3.98;3.10;;;;;;;20.08;60.41;100982.04;1383113;88;21599;31
2021/09/02 08:31:33;;;;;;;4.17;2.75;;;;;;;19.93;57.90;100982.97;1381818;90;21217;-94
2021/09/02 08:34:00;;;;;;;9.43;2.70;;;;;;;20.11;59.94;100982.50;1378879;89;21319;-95
2021/09/02 08:36:28;;;;;;;7.67;2.60;;;;;;;20.02;58.62;100985.00;1393218;86;21551;-82
2021/09/02 08:38:56;;;;;;;4.60;3.10;;;;;;;19.88;56.04;100991.30;1368522;88;21551;31
2021/09/02 08:44:02;;;;;;;5.17;2.55;;;;;;;19.88;58.56;100989.95;1383764;87;21522;31
2021/09/02 08:46:30;;;;;;;4.15;2.40;;;;;;;19.89;58.00;100987.09;1385647;86;24738;-85
2021/09/02 08:51:30;;;;;;;7.78;2.92;;;;;;;20.01;58.06;100988.72;1403965;85;23370;31
2021/09/02 08:54:02;;;;;;;7.92;2.83;;;;;;;19.98;56.09;100993.14;1410186;86;21714;31
2021/09/02 08:59:40;;;;;;;3.85;2.77;;;;;;;20.04;57.62;100984.30;1362535;95;21364;-93
2021/09/02 09:02:29;;;;;;;2.92;1.85;;;;;;;20.13;56.70;100976.39;1365589;91;21283;-94
2021/09/02 09:05:07;;;;;;;5.25;2.52;;;;;;;20.39;54.06;100981.61;1371115;86;23044;-90
2021/09/02 09:07:42;;;;;;;5.65;2.60;;;;;;;20.61;51.24;100983.20;1371433;85;21731;31
2021/09/02 09:10:19;;;;;;;4.87;2.98;;;;;;;20.77;54.04;100987.39;1400979;85;21536;-91
2021/09/02 09:12:51;;;;;;;7.85;2.42;;;;;;;20.87;53.04;100983.00;1395713;88;21473;-93
2021/09/02 09:15:28;;;;;;;6.97;3.12;;;;;;;20.99;50.27;100986.75;1404895;86;21615;-92
2021/09/02 09:18:16;;;;;;;2.92;2.30;;;;;;;21.16;52.24;100977.28;1375251;90;22108;-92
2021/09/02 09:20:47;;;;;;;3.50;2.62;;;;;;;21.33;50.65;100979.59;1380184;87;21723;-90
2021/09/02 09:23:14;;;;;;;5.42;2.67;;;;;;;21.46;51.93;100975.58;1401467;86;22579;-89
2021/09/02 09:25:42;;;;;;;5.25;2.02;;;;;;;21.50;50.14;100976.84;1419877;86;21440;-93
2021/09/02 09:28:09;;;;;;;10.50;2.75;;;;;;;21.52;48.41;100973.44;1402533;88;22181;-92
2021/09/02 09:30:38;;;;;;;3.12;2.40;;;;;;;21.63;50.69;100979.52;1413365;86;21324;-93
2021/09/02 09:33:09;;;;;;;4.60;3.03;;;;;;;21.77;50.88;100978.19;1403527;87;21338;-92
2021/09/02 09:35:43;;;;;;;3.55;2.30;;;;;;;21.73;50.40;100970.22;1390661;89;21309;-94
2021/09/02 09:38:21;;;;;;;4.87;2.90;;;;;;;21.79;49.67;100972.08;1390304;89;21272;-92
2021/09/02 09:40:52;;;;;;;5.70;2.20;;;;;;;21.97;49.92;100969.56;1389684;89;21360;-92
2021/09/02 09:43:24;;;;;;;8.33;2.75;;;;;;;21.85;48.28;100968.55;1395186;88;22306;-91
2021/09/02 09:45:57;;;;;;;4.37;2.30;;;;;;;22.09;49.51;100982.70;1389454;88;22122;-91
2021/09/02 09:48:35;;;;;;;3.52;2.17;;;;;;;22.34;48.04;100974.51;1399553;87;21580;-91
2021/09/02 09:51:19;;;;;;;6.40;2.75;;;;;;;22.27;47.98;100973.19;1406426;88;21273;-91
2021/09/02 09:53:49;;;;;;;5.37;3.08;;;;;;;21.89;48.52;100977.86;1404827;88;22143;-92
2021/09/02 09:56:21;;;;;;;;;;;;;;;21.72;48.27;100982.87;1395956;86;21592;-91
2021/09/02 09:58:52;;;;;;;5.87;2.35;;;;;;;21.53;49.57;100980.47;1374094;86;20289;-91
2021/09/02 10:01:19;;;;;;;3.22;2.12;;;;;;;21.44;49.82;100983.06;1361747;91;22326;-88
2021/09/02 10:03:54;;;;;;;4.00;2.65;;;;;;;21.33;49.61;100984.98;1360865;91;21446;-86
2021/09/02 10:06:23;;;;;;;3.30;2.52;;;;;;;21.34;50.31;100992.01;1359850;91;21281;-88
2021/09/02 10:08:50;;;;;;;6.00;2.35;;;;;;;21.36;49.79;100989.95;1354356;91;21399;-88
2021/09/02 10:11:20;;;;;;;4.28;2.60;;;;;;;21.62;48.20;100988.65;1353932;91;22021;-88
2021/09/02 10:13:48;;;;;;;4.12;2.12;;;;;;;21.98;49.61;100992.80;1337976;92;22316;-89
2021/09/02 10:16:23;;;;;;;3.80;2.45;;;;;;;21.73;49.33;100994.47;1338296;92;21377;-90
2021/09/02 10:18:51;;;;;;;3.42;2.62;;;;;;;21.67;48.80;101000.69;1311273;93;21288;-90
2021/09/02 10:21:22;;;;;;;4.35;2.87;;;;;;;21.46;50.32;100997.13;1346725;92;21465;-88
2021/09/02 10:23:49;;;;;;;3.70;2.35;;;;;;;21.31;50.58;101005.88;1346954;91;21352;-90
2021/09/02 10:26:34;;;;;;;7.50;3.22;;;;;;;21.69;51.49;101000.77;1357699;91;21280;-90
2021/09/02 10:29:10;;;;;;;3.60;2.65;;;;;;;21.96;49.34;100996.21;1362853;91;21351;-89
2021/09/02 10:31:37;;;;;;;10.05;2.45;;;;;;;22.11;48.43;100995.98;1343974;90;21812;-92
2021/09/02 10:34:10;;;;;;;3.00;2.05;;;;;;;22.01;46.54;101001.81;1362727;91;22213;-91
2021/09/02 10:36:39;;;;;;;2.60;1.90;;;;;;;22.27;47.80;100989.36;1359646;91;21358;-90
2021/09/02 10:39:09;;;;;;;6.97;2.90;;;;;;;22.23;46.10;100990.28;1360608;91;21344;-89
2021/09/02 10:41:44;;;;;;;6.40;2.65;;;;;;;22.45;47.75;100983.30;1360058;90;22787;-91
2021/09/02 10:44:13;;;;;;;2.37;1.92;;;;;;;22.58;46.88;100994.54;1360928;91;22252;-90
2021/09/02 10:46:53;;;;;;;4.03;2.47;;;;;;;22.70;45.95;100994.17;1361171;91;22827;-91
2021/09/02 10:49:31;;;;;;;3.17;2.10;;;;;;;22.78;47.72;100996.64;1360641;91;21270;-89
2021/09/02 10:52:06;;;;;;;4.47;1.90;;;;;;;22.77;43.82;100986.89;1361312;91;21433;-89
2021/09/02 10:54:43;;;;;;;3.02;2.40;;;;;;;22.79;41.17;100993.41;1353046;91;22370;-88
2021/09/02 10:57:13;;;;;;;4.43;2.33;;;;;;;22.80;43.34;100991.86;1361771;91;21358;-89
2021/09/02 10:59:53;;;;;;;2.35;2.08;;;;;;;22.79;41.62;101001.01;1361762;89;21556;-91
2021/09/02 11:02:29;;;;;;;5.50;2.35;;;;;;;22.84;42.54;101003.05;1362704;91;21484;-90
2021/09/02 11:05:02;;;;;;;5.22;2.55;;;;;;;22.98;43.60;101010.89;1360461;91;22113;-90
2021/09/02 11:07:44;;;;;;;4.17;2.45;;;;;;;23.22;41.44;101011.20;1360670;92;21308;-88
2021/09/02 11:10:25;;;;;;;10.28;3.10;;;;;;;23.49;42.91;101005.63;1361086;91;21440;-90
2021/09/02 11:13:06;;;;;;;9.85;2.85;;;;;;;23.31;41.90;100999.09;1361042;92;21436;-90
2021/09/02 11:15:35;;;;;;;6.28;3.15;;;;;;;23.23;43.98;101006.63;1359527;91;22644;-87
2021/09/02 11:18:06;;;;;;;5.35;2.92;;;;;;;22.70;42.86;101004.47;1359967;91;21335;-88
2021/09/02 11:20:38;;;;;;;6.50;2.90;;;;;;;22.67;43.84;101005.39;1359458;91;21351;-89
2021/09/02 11:23:12;;;;;;;3.80;2.47;;;;;;;22.90;43.50;101003.04;1359294;91;21511;-86
2021/09/02 11:25:42;;;;;;;6.85;2.22;;;;;;;22.84;40.05;101005.22;1359805;91;21255;-87
2021/09/02 11:28:10;;;;;;;3.98;2.42;;;;;;;23.02;39.90;101002.36;1359678;91;21314;-87
2021/09/02 11:30:37;;;;;;;7.85;2.17;;;;;;;23.22;40.30;101003.10;1359870;91;21350;-87
2021/09/02 11:33:06;;;;;;;2.95;1.92;;;;;;;23.17;40.98;101006.44;1360000;91;21373;-89
2021/09/02 11:35:35;;;;;;;3.02;2.33;;;;;;;22.57;40.82;101010.42;1360973;91;21488;-90
2021/09/02 11:38:04;;;;;;;3.72;2.62;;;;;;;22.33;41.27;101010.09;1360721;91;22149;-89
2021/09/02 11:40:35;;;;;;;4.53;3.02;;;;;;;22.38;42.14;101007.56;1361009;91;21329;-89
2021/09/02 11:43:04;;;;;;;5.92;2.52;;;;;;;22.51;42.64;101008.88;1360536;91;21299;-89
2021/09/02 11:45:33;;;;;;;6.45;2.15;;;;;;;22.83;42.04;101018.41;1360425;91;22702;-89
2021/09/02 11:48:07;;;;;;;2.40;2.00;;;;;;;22.76;39.11;101012.23;1360114;91;22252;-89